Time;durP1;ratioP1;P1;durP2;ratioP2;P2;SDS_P1;SDS_P2;PMS_P1;PMS_P2;Temp;Humidity;BMP_temperature;BMP_pressure;BME280_temperature;BME280_humidity;BME280_pressure;Samples;Min_cycle;Max_cycle;Signal;HPM_P1;HPM_P2
2022/02/15 00:01:00;;;;;;;5.50;3.33;;;8.00;99.90;;;;;;5022725;28;20240;-58
2022/02/15 00:03:30;;;;;;;7.93;3.33;;;7.90;99.90;;;;;;5026855;28;20296;-58
2022/02/15 00:05:59;;;;;;;7.00;2.83;;;7.90;99.90;;;;;;5022838;28;20245;-58
2022/02/15 00:08:27;;;;;;;6.43;3.13;;;7.90;99.90;;;;;;5018068;28;20237;-59
2022/02/15 00:10:56;;;;;;;6.60;3.70;;;7.90;99.90;;;;;;5024912;28;20697;-58
2022/02/15 00:13:24;;;;;;;8.87;4.83;;;7.90;99.90;;;;;;5025133;28;20225;-58
2022/02/15 00:15:52;;;;;;;6.20;3.70;;;7.90;99.90;;;;;;5010604;28;20267;-58
2022/02/15 00:18:20;;;;;;;6.33;3.50;;;8.00;99.90;;;;;;5015739;28;20701;-58
2022/02/15 00:20:50;;;;;;;5.83;3.33;;;7.90;99.90;;;;;;5022350;28;20240;-58
2022/02/15 00:23:21;;;;;;;8.93;4.17;;;7.90;99.90;;;;;;5023560;28;20263;-58
2022/02/15 00:25:50;;;;;;;5.60;3.37;;;7.90;99.90;;;;;;5022570;28;20267;-59
2022/02/15 00:28:18;;;;;;;5.77;4.07;;;7.90;99.90;;;;;;5018478;28;20237;-58
2022/02/15 00:30:46;;;;;;;7.57;3.80;;;7.90;99.90;;;;;;5024833;28;20268;-58
2022/02/15 00:33:14;;;;;;;5.97;3.80;;;7.90;99.90;;;;;;5023317;28;20287;-58
2022/02/15 00:35:45;;;;;;;6.50;3.60;;;8.00;99.90;;;;;;5028667;28;20238;-58
2022/02/15 00:38:15;;;;;;;5.57;3.70;;;8.00;99.90;;;;;;5018330;28;20249;-58
2022/02/15 00:40:44;;;;;;;10.53;3.80;;;8.00;99.90;;;;;;5022140;28;20232;-58
2022/02/15 00:43:12;;;;;;;4.93;3.30;;;8.00;99.90;;;;;;5026557;28;20717;-58
2022/02/15 00:45:40;;;;;;;8.17;3.90;;;8.00;99.90;;;;;;5018848;28;20720;-58
2022/02/15 00:48:08;;;;;;;6.33;3.57;;;8.00;99.90;;;;;;5014148;28;20271;-59
2022/02/15 00:50:36;;;;;;;5.93;3.47;;;7.90;99.90;;;;;;5024699;28;20244;-58
2022/02/15 00:53:05;;;;;;;5.60;3.60;;;8.00;99.90;;;;;;5020773;28;20246;-58
2022/02/15 00:55:34;;;;;;;8.13;3.77;;;8.00;99.90;;;;;;5012012;28;20247;-58
2022/02/15 00:58:02;;;;;;;8.03;3.93;;;8.00;99.90;;;;;;5017333;28;20320;-58
2022/02/15 01:00:30;;;;;;;5.73;4.03;;;8.00;99.90;;;;;;5026060;28;20299;-58
2022/02/15 01:02:58;;;;;;;8.03;4.20;;;7.90;99.90;;;;;;5030967;28;20244;-58
2022/02/15 01:05:27;;;;;;;9.03;4.10;;;7.90;99.90;;;;;;5030839;28;20363;-58
2022/02/15 01:07:55;;;;;;;6.77;3.93;;;8.00;99.90;;;;;;5024543;28;20228;-58
2022/02/15 01:10:23;;;;;;;7.97;4.47;;;7.90;99.90;;;;;;5029471;28;20236;-58
2022/02/15 01:12:53;;;;;;;9.77;4.70;;;7.90;99.90;;;;;;5018274;28;20567;-58
2022/02/15 01:15:21;;;;;;;6.60;4.27;;;7.90;99.90;;;;;;5000145;28;20244;-59
2022/02/15 01:17:49;;;;;;;8.97;4.50;;;7.90;99.90;;;;;;5031769;28;20240;-59
2022/02/15 01:20:18;;;;;;;11.10;5.30;;;7.90;99.90;;;;;;5012850;28;20241;-58
2022/02/15 01:22:46;;;;;;;7.50;4.63;;;7.90;99.90;;;;;;5016762;28;20718;-58
2022/02/15 01:25:14;;;;;;;7.37;4.80;;;7.80;99.90;;;;;;5014366;28;20329;-58
2022/02/15 01:27:42;;;;;;;7.80;4.60;;;7.80;99.90;;;;;;5012292;28;20319;-58
2022/02/15 01:30:13;;;;;;;8.70;4.77;;;7.80;99.90;;;;;;5018755;28;20259;-58
2022/02/15 01:32:41;;;;;;;7.83;5.40;;;7.80;99.90;;;;;;5005046;28;20237;-58
2022/02/15 01:35:10;;;;;;;5.20;4.70;;;7.80;99.90;;;;;;5009090;28;20621;-58
2022/02/15 01:37:38;;;;;;;7.60;4.90;;;7.80;99.90;;;;;;5013915;28;20237;-58
2022/02/15 01:40:07;;;;;;;8.50;5.40;;;7.80;99.90;;;;;;5012898;28;20237;-58
2022/02/15 01:42:36;;;;;;;6.47;5.13;;;7.80;99.90;;;;;;5013387;28;20245;-58
2022/02/15 01:45:06;;;;;;;8.57;5.47;;;7.80;99.90;;;;;;5040790;28;20260;-57
2022/02/15 01:47:36;;;;;;;6.70;5.00;;;7.70;99.90;;;;;;5051850;28;20591;-58
2022/02/15 01:50:04;;;;;;;6.33;5.13;;;7.70;99.90;;;;;;5028596;28;20327;-58
2022/02/15 01:52:32;;;;;;;6.30;5.60;;;7.70;99.90;;;;;;5023822;28;20236;-58
2022/02/15 01:55:01;;;;;;;6.47;5.53;;;7.70;99.90;;;;;;5021270;28;20578;-58
2022/02/15 01:57:31;;;;;;;5.97;5.27;;;7.60;99.90;;;;;;5031225;28;20778;-57
2022/02/15 02:00:13;;;;;;;6.20;4.73;;;7.60;99.90;;;;;;5016253;28;20316;-58
2022/02/15 02:02:45;;;;;;;8.40;5.73;;;7.50;99.90;;;;;;4995034;28;20761;-57
2022/02/15 02:08:06;;;;;;;6.10;5.50;;;7.40;99.90;;;;;;4985476;28;20334;-58
2022/02/15 02:10:40;;;;;;;6.87;5.17;;;7.40;99.90;;;;;;4970254;28;20323;-59
2022/02/15 02:13:16;;;;;;;9.10;5.07;;;7.40;99.90;;;;;;4967704;28;20270;-58
2022/02/15 02:15:46;;;;;;;6.73;5.07;;;7.30;99.90;;;;;;5010702;28;20708;-58
2022/02/15 02:18:21;;;;;;;6.07;5.47;;;7.30;99.90;;;;;;5017374;28;20242;-57
2022/02/15 02:20:50;;;;;;;6.40;4.57;;;7.30;99.90;;;;;;4990307;28;20261;-58
2022/02/15 02:23:22;;;;;;;6.20;4.50;;;7.30;99.90;;;;;;5025523;28;20237;-57
2022/02/15 02:25:54;;;;;;;7.07;4.60;;;7.30;99.90;;;;;;5023239;28;20255;-58
2022/02/15 02:28:25;;;;;;;6.90;4.30;;;7.30;99.90;;;;;;5027303;28;20260;-59
2022/02/15 02:30:53;;;;;;;4.03;3.60;;;7.30;99.90;;;;;;5024456;28;20308;-57
2022/02/15 02:33:23;;;;;;;6.53;4.13;;;7.30;99.90;;;;;;5025236;28;20233;-57
2022/02/15 02:35:59;;;;;;;6.73;3.90;;;7.20;99.90;;;;;;5024490;28;20752;-58
2022/02/15 02:38:29;;;;;;;5.50;4.00;;;7.20;99.90;;;;;;5012381;28;20236;-58
2022/02/15 02:41:04;;;;;;;4.97;3.60;;;7.20;99.90;;;;;;5011315;28;20275;-58
2022/02/15 02:43:32;;;;;;;5.37;3.60;;;7.10;99.90;;;;;;5011138;28;20712;-58
2022/02/15 02:46:01;;;;;;;4.93;3.87;;;7.10;99.90;;;;;;5031014;28;20253;-59
2022/02/15 02:48:31;;;;;;;3.73;3.33;;;7.20;99.90;;;;;;5024366;28;20248;-58
2022/02/15 02:51:00;;;;;;;5.27;3.50;;;7.10;99.90;;;;;;5016071;28;20241;-57
2022/02/15 02:53:29;;;;;;;5.47;2.97;;;7.10;99.90;;;;;;5012206;28;20237;-58
2022/02/15 02:55:57;;;;;;;3.77;3.20;;;7.10;99.90;;;;;;5010979;28;20237;-58
2022/02/15 02:58:25;;;;;;;4.30;3.27;;;7.20;99.90;;;;;;5009271;28;20602;-57
2022/02/15 03:00:53;;;;;;;4.20;3.50;;;7.10;99.90;;;;;;5013830;28;20255;-59
2022/02/15 03:03:34;;;;;;;5.43;3.20;;;7.10;99.90;;;;;;5039758;28;20232;-58
2022/02/15 03:06:07;;;;;;;3.47;2.90;;;7.10;99.90;;;;;;5028798;28;20235;-58
2022/02/15 03:08:37;;;;;;;4.50;3.10;;;7.10;99.90;;;;;;5018970;28;20286;-58
2022/02/15 03:11:05;;;;;;;3.87;2.43;;;7.10;99.90;;;;;;5024742;28;20272;-58
2022/02/15 03:13:37;;;;;;;4.43;2.67;;;7.10;99.90;;;;;;5043048;28;20260;-58
2022/02/15 03:16:11;;;;;;;4.10;2.20;;;7.20;99.90;;;;;;5017571;28;20231;-58
2022/02/15 03:18:39;;;;;;;2.43;1.87;;;7.10;99.90;;;;;;5015199;28;20232;-58
2022/02/15 03:21:11;;;;;;;2.40;1.63;;;7.10;99.90;;;;;;5021888;28;20731;-58
2022/02/15 03:23:40;;;;;;;3.20;1.80;;;7.10;99.90;;;;;;5027325;28;20320;-58
2022/02/15 03:26:12;;;;;;;3.77;1.80;;;7.10;99.90;;;;;;5021667;28;20228;-58
2022/02/15 03:28:42;;;;;;;5.17;1.80;;;7.10;99.90;;;;;;5025252;28;20233;-58
2022/02/15 03:31:12;;;;;;;4.23;1.80;;;7.10;99.90;;;;;;5022201;28;20237;-57
2022/02/15 03:33:42;;;;;;;2.03;1.57;;;7.10;99.90;;;;;;5026185;28;20228;-58
2022/02/15 03:36:11;;;;;;;6.10;2.07;;;7.10;99.90;;;;;;5028010;28;20600;-58
2022/02/15 03:38:41;;;;;;;5.70;2.27;;;7.00;99.90;;;;;;5010304;28;20243;-60
2022/02/15 03:44:24;;;;;;;3.50;2.20;;;7.00;99.90;;;;;;5007739;28;20351;-58
2022/02/15 03:46:58;;;;;;;3.33;1.97;;;7.00;99.90;;;;;;5046479;28;20323;-58
2022/02/15 03:49:32;;;;;;;4.30;2.13;;;7.00;99.90;;;;;;5044556;28;20603;-58
2022/02/15 03:52:01;;;;;;;3.30;2.10;;;7.00;99.90;;;;;;5041574;28;20554;-58
2022/02/15 03:54:31;;;;;;;3.50;2.20;;;6.90;99.90;;;;;;5042976;28;20824;-58
2022/02/15 03:57:00;;;;;;;3.27;2.10;;;7.00;99.90;;;;;;5044507;28;20264;-58
2022/02/15 03:59:31;;;;;;;5.43;2.47;;;7.00;99.90;;;;;;5043029;28;20240;-58
2022/02/15 04:01:59;;;;;;;5.77;2.37;;;7.00;99.90;;;;;;5044490;28;20239;-58
2022/02/15 04:04:29;;;;;;;3.33;2.37;;;7.00;99.90;;;;;;5043289;28;20261;-57
2022/02/15 04:06:59;;;;;;;3.10;1.90;;;7.00;99.90;;;;;;5043194;28;20240;-58
2022/02/15 04:09:28;;;;;;;4.17;2.40;;;6.90;99.90;;;;;;5042755;28;20731;-58
2022/02/15 04:11:59;;;;;;;4.20;2.43;;;6.90;99.90;;;;;;5041201;28;20318;-57
2022/02/15 04:14:35;;;;;;;3.10;2.20;;;6.90;99.90;;;;;;5035726;28;20584;-58
2022/02/15 04:17:07;;;;;;;3.70;2.30;;;6.90;99.90;;;;;;5041292;28;20242;-58
2022/02/15 04:19:37;;;;;;;6.47;2.87;;;6.90;99.90;;;;;;5041948;28;20240;-58
2022/02/15 04:22:05;;;;;;;3.83;2.33;;;6.90;99.90;;;;;;5042907;28;20247;-58
2022/02/15 04:24:36;;;;;;;2.77;2.40;;;6.90;99.90;;;;;;5041639;28;20334;-58
2022/02/15 04:27:07;;;;;;;5.57;2.57;;;6.90;99.90;;;;;;5045159;28;20311;-57
2022/02/15 04:29:35;;;;;;;6.53;2.77;;;6.90;99.90;;;;;;5023222;28;20236;-58
2022/02/15 04:32:04;;;;;;;5.63;2.50;;;6.90;99.90;;;;;;5021224;28;20294;-58
2022/02/15 04:34:33;;;;;;;5.83;2.23;;;6.80;99.90;;;;;;5015025;28;20236;-57
2022/02/15 04:37:02;;;;;;;4.73;2.17;;;6.80;99.90;;;;;;5006368;28;20320;-57
2022/02/15 04:39:35;;;;;;;4.87;2.60;;;6.80;99.90;;;;;;5031998;28;20289;-58
2022/02/15 04:42:11;;;;;;;5.77;2.67;;;6.80;99.90;;;;;;5022480;28;20663;-58
2022/02/15 04:44:40;;;;;;;3.77;2.53;;;6.80;99.90;;;;;;5006372;28;20233;-59
2022/02/15 04:47:11;;;;;;;5.80;2.30;;;6.80;99.90;;;;;;5000522;28;20233;-58
2022/02/15 04:49:39;;;;;;;4.43;2.10;;;6.80;99.90;;;;;;5012979;28;20235;-59
2022/02/15 04:52:08;;;;;;;7.10;2.80;;;6.80;99.90;;;;;;5006026;28;20233;-58
2022/02/15 04:54:36;;;;;;;4.60;2.60;;;6.80;99.90;;;;;;5014526;28;20710;-58
2022/02/15 04:57:05;;;;;;;6.77;2.30;;;6.80;99.90;;;;;;5040915;28;20240;-58
2022/02/15 04:59:39;;;;;;;5.03;2.90;;;6.70;99.90;;;;;;5021387;28;20225;-58
2022/02/15 05:02:15;;;;;;;5.40;2.40;;;6.80;99.90;;;;;;5025747;28;20263;-57
2022/02/15 05:04:49;;;;;;;6.63;2.30;;;6.80;99.90;;;;;;5024423;28;20283;-58
2022/02/15 05:07:23;;;;;;;4.47;2.47;;;6.70;99.90;;;;;;5020636;28;20237;-58
2022/02/15 05:09:51;;;;;;;7.97;2.70;;;6.70;99.90;;;;;;5018752;28;20233;-58
2022/02/15 05:12:20;;;;;;;7.53;2.73;;;6.70;99.90;;;;;;5021227;28;20325;-58
2022/02/15 05:14:50;;;;;;;6.40;2.70;;;6.70;99.90;;;;;;5004246;28;20229;-58
2022/02/15 05:17:30;;;;;;;6.10;2.80;;;6.70;99.90;;;;;;5000399;28;20617;-58
2022/02/15 05:19:58;;;;;;;7.23;3.00;;;6.70;99.90;;;;;;5006485;28;20235;-58
2022/02/15 05:22:27;;;;;;;5.17;2.87;;;6.70;99.90;;;;;;5005811;28;20234;-58
2022/02/15 05:24:58;;;;;;;6.20;2.60;;;6.70;99.90;;;;;;5006637;28;20240;-58
2022/02/15 05:27:30;;;;;;;5.47;2.67;;;6.70;99.90;;;;;;5001941;28;20244;-58
2022/02/15 05:30:06;;;;;;;6.37;2.73;;;6.70;99.90;;;;;;5014259;28;20236;-58
2022/02/15 05:32:43;;;;;;;6.77;3.00;;;6.70;99.90;;;;;;5009720;28;20257;-59
2022/02/15 05:35:12;;;;;;;8.63;3.07;;;6.70;99.90;;;;;;5026851;28;20328;-58
2022/02/15 05:37:44;;;;;;;7.47;3.10;;;6.70;99.90;;;;;;5016848;28;20259;-57
2022/02/15 05:40:16;;;;;;;5.90;2.97;;;6.70;99.90;;;;;;5018052;28;20236;-58
2022/02/15 05:42:57;;;;;;;6.50;3.40;;;6.70;99.90;;;;;;5008854;28;20271;-58
2022/02/15 05:45:27;;;;;;;5.53;3.80;;;6.70;99.90;;;;;;5012272;28;20239;-56
2022/02/15 05:48:09;;;;;;;6.03;3.47;;;6.70;99.90;;;;;;5001855;28;20319;-58
2022/02/15 05:50:53;;;;;;;5.07;3.53;;;6.60;99.90;;;;;;5039843;28;20263;-59
2022/02/15 05:53:32;;;;;;;6.63;4.00;;;6.60;99.90;;;;;;5047026;28;20320;-58
2022/02/15 05:56:02;;;;;;;6.73;3.80;;;6.60;99.90;;;;;;5028607;28;20256;-58
2022/02/15 05:58:42;;;;;;;7.47;4.33;;;6.60;99.90;;;;;;5027638;28;20239;-58
2022/02/15 06:01:30;;;;;;;6.83;4.00;;;6.60;99.90;;;;;;5023601;28;20240;-58
2022/02/15 06:04:10;;;;;;;8.80;4.40;;;6.60;99.90;;;;;;5028070;28;20235;-58
2022/02/15 06:06:45;;;;;;;6.77;4.57;;;6.60;99.90;;;;;;5029478;28;20229;-58
2022/02/15 06:09:15;;;;;;;6.47;4.40;;;6.60;99.90;;;;;;5020532;28;20654;-57
2022/02/15 06:11:46;;;;;;;5.47;4.43;;;6.50;99.90;;;;;;5023244;28;20259;-58
2022/02/15 06:14:14;;;;;;;9.00;4.70;;;6.60;99.90;;;;;;5004965;28;20695;-59
2022/02/15 06:16:43;;;;;;;7.43;4.47;;;6.70;99.90;;;;;;5025493;28;20240;-58
2022/02/15 06:19:22;;;;;;;8.60;5.00;;;6.60;99.90;;;;;;5026308;28;20318;-58
2022/02/15 06:21:50;;;;;;;9.47;5.50;;;6.60;99.90;;;;;;5025017;28;20233;-58
2022/02/15 06:24:24;;;;;;;8.53;5.30;;;6.60;99.90;;;;;;5017616;28;20239;-58
2022/02/15 06:27:24;;;;;;;9.87;5.83;;;6.70;99.90;;;;;;5012220;28;20241;-58
2022/02/15 06:30:19;;;;;;;8.13;5.80;;;6.60;99.90;;;;;;5011515;28;20234;-58
2022/02/15 06:32:59;;;;;;;9.47;6.17;;;6.60;99.90;;;;;;5015764;28;20342;-58
2022/02/15 06:35:28;;;;;;;11.50;6.57;;;6.60;99.90;;;;;;5013606;28;20230;-58
2022/02/15 06:38:02;;;;;;;10.20;6.47;;;6.60;99.90;;;;;;5020613;28;20236;-58
2022/02/15 06:40:30;;;;;;;8.87;6.70;;;6.60;99.90;;;;;;5026838;28;20771;-58
2022/02/15 06:43:03;;;;;;;12.73;7.37;;;6.60;99.90;;;;;;5015127;28;20235;-58
2022/02/15 06:45:33;;;;;;;11.03;7.10;;;6.60;99.90;;;;;;5024140;28;20251;-58
2022/02/15 06:48:03;;;;;;;10.77;7.23;;;6.50;99.90;;;;;;5028684;28;20238;-58
2022/02/15 06:50:35;;;;;;;9.40;7.20;;;6.50;99.90;;;;;;5046313;28;20666;-58
2022/02/15 06:53:26;;;;;;;13.47;7.47;;;6.50;99.90;;;;;;5016563;28;20228;-57
2022/02/15 06:56:41;;;;;;;11.70;7.77;;;6.50;99.90;;;;;;5011882;28;20241;-59
2022/02/15 06:59:13;;;;;;;11.67;7.77;;;6.50;99.90;;;;;;5038950;28;20235;-58
2022/02/15 07:01:43;;;;;;;12.47;7.97;;;6.50;99.90;;;;;;5035643;28;20251;-58
2022/02/15 07:04:16;;;;;;;15.43;9.00;;;6.60;99.90;;;;;;5046204;28;20231;-57
2022/02/15 07:06:45;;;;;;;10.47;7.50;;;6.60;99.90;;;;;;5045038;28;20921;-58
2022/02/15 07:09:14;;;;;;;10.67;8.13;;;6.50;99.90;;;;;;5042869;28;20711;-59
2022/02/15 07:12:00;;;;;;;10.43;7.67;;;6.50;99.90;;;;;;5043666;28;20710;-58
2022/02/15 07:14:32;;;;;;;9.57;7.83;;;6.50;99.90;;;;;;5046492;28;20245;-58
2022/02/15 07:17:02;;;;;;;12.43;7.80;;;6.60;99.90;;;;;;5050540;28;20232;-58
2022/02/15 07:19:32;;;;;;;12.13;7.83;;;6.50;99.90;;;;;;5045042;28;20270;-58
2022/02/15 07:22:20;;;;;;;10.40;7.33;;;6.50;99.90;;;;;;5044920;28;20651;-58
2022/02/15 07:24:48;;;;;;;13.63;8.50;;;6.50;99.90;;;;;;5039799;28;20310;-58
2022/02/15 07:27:31;;;;;;;13.00;7.97;;;6.50;99.90;;;;;;5030450;28;20256;-58
2022/02/15 07:30:01;;;;;;;10.80;7.37;;;6.50;99.90;;;;;;5030986;28;20243;-58
2022/02/15 07:32:49;;;;;;;8.43;6.77;;;6.50;99.90;;;;;;5031385;28;20750;-58
2022/02/15 07:35:20;;;;;;;12.40;7.03;;;6.50;99.90;;;;;;5028784;28;20319;-59
2022/02/15 07:37:48;;;;;;;8.93;6.70;;;6.50;99.90;;;;;;5031424;28;20732;-58
2022/02/15 07:40:19;;;;;;;9.33;6.83;;;6.50;99.90;;;;;;5031656;28;20584;-59
2022/02/15 07:42:47;;;;;;;10.53;6.87;;;6.50;99.90;;;;;;5031300;28;20311;-58
2022/02/15 07:45:18;;;;;;;13.43;7.17;;;6.50;99.90;;;;;;5030037;28;20588;-58
2022/02/15 07:47:47;;;;;;;12.73;6.60;;;6.50;99.90;;;;;;5031409;28;20271;-58
2022/02/15 07:50:17;;;;;;;9.90;6.27;;;6.50;99.90;;;;;;5032109;28;20236;-59
2022/02/15 07:52:50;;;;;;;9.53;6.30;;;6.50;99.90;;;;;;5031092;28;20684;-58
2022/02/15 07:55:19;;;;;;;9.47;6.17;;;6.60;99.90;;;;;;5030888;28;20237;-59
2022/02/15 07:57:48;;;;;;;8.13;6.40;;;6.60;99.90;;;;;;5031041;28;20320;-58
2022/02/15 08:00:21;;;;;;;10.23;6.10;;;6.60;99.90;;;;;;5031173;28;20243;-58
2022/02/15 08:02:52;;;;;;;12.03;6.23;;;6.60;99.90;;;;;;5031320;28;20724;-58
2022/02/15 08:05:21;;;;;;;10.93;6.63;;;6.60;99.90;;;;;;5030873;28;20271;-58
2022/02/15 08:07:54;;;;;;;7.87;5.77;;;6.60;99.90;;;;;;5029788;28;20278;-58
2022/02/15 08:10:24;;;;;;;12.07;5.60;;;6.70;99.90;;;;;;5031682;28;20240;-58
2022/02/15 08:12:55;;;;;;;11.10;6.53;;;6.70;99.90;;;;;;5031027;28;20250;-58
2022/02/15 08:15:26;;;;;;;7.93;6.10;;;6.70;99.90;;;;;;5031123;28;20735;-58
2022/02/15 08:17:54;;;;;;;8.87;6.10;;;6.70;99.90;;;;;;5031175;28;20331;-58
2022/02/15 08:20:29;;;;;;;11.50;6.20;;;6.70;99.90;;;;;;5030855;28;20243;-58
2022/02/15 08:22:58;;;;;;;11.70;6.20;;;6.80;99.90;;;;;;5030834;28;20240;-57
2022/02/15 08:25:28;;;;;;;9.70;5.93;;;6.80;99.90;;;;;;5030967;28;20256;-58
2022/02/15 08:27:57;;;;;;;9.07;5.77;;;6.80;99.90;;;;;;5035414;28;20728;-58
2022/02/15 08:30:25;;;;;;;7.83;5.97;;;6.80;99.90;;;;;;5028782;28;20630;-58
2022/02/15 08:32:54;;;;;;;7.40;5.73;;;6.70;99.90;;;;;;5029452;28;20224;-58
2022/02/15 08:35:22;;;;;;;6.20;5.60;;;6.80;99.90;;;;;;5030583;28;20262;-57
2022/02/15 08:37:52;;;;;;;11.37;6.17;;;6.80;99.90;;;;;;5030469;28;20235;-58
2022/02/15 08:40:22;;;;;;;10.17;6.07;;;6.80;99.90;;;;;;5030594;28;20229;-58
2022/02/15 08:42:50;;;;;;;9.67;6.63;;;6.80;99.90;;;;;;5030766;28;20248;-58
2022/02/15 08:45:19;;;;;;;10.17;7.47;;;6.80;99.90;;;;;;5030548;28;20236;-58
2022/02/15 08:47:47;;;;;;;11.90;7.03;;;6.80;99.90;;;;;;5030559;28;20248;-58
2022/02/15 08:50:16;;;;;;;9.10;6.30;;;6.80;99.90;;;;;;5031300;28;20796;-58
2022/02/15 08:52:45;;;;;;;8.73;6.20;;;6.80;99.90;;;;;;5030580;28;20336;-58
2022/02/15 08:55:14;;;;;;;10.23;6.27;;;6.80;99.90;;;;;;5030298;28;20247;-58
2022/02/15 08:57:44;;;;;;;9.70;6.63;;;6.80;99.90;;;;;;5030672;28;20716;-58
2022/02/15 09:00:15;;;;;;;11.63;6.60;;;6.90;99.90;;;;;;5010932;28;20237;-59
2022/02/15 09:02:43;;;;;;;9.13;6.63;;;6.90;99.90;;;;;;5010716;28;20292;-58
2022/02/15 09:05:11;;;;;;;8.40;6.33;;;7.00;99.90;;;;;;5010793;28;20264;-59
2022/02/15 09:07:39;;;;;;;10.00;6.60;;;7.00;99.90;;;;;;5010913;28;20241;-58
2022/02/15 09:10:08;;;;;;;10.53;6.70;;;7.00;99.90;;;;;;5030955;28;20600;-58
2022/02/15 09:12:36;;;;;;;10.43;6.80;;;7.00;99.90;;;;;;5030616;28;20232;-58
2022/02/15 09:15:09;;;;;;;8.10;6.40;;;7.00;99.90;;;;;;5030233;28;20232;-58
2022/02/15 09:17:39;;;;;;;7.30;5.80;;;7.00;99.90;;;;;;5034430;28;20243;-58
2022/02/15 09:20:10;;;;;;;8.83;6.30;;;7.10;99.90;;;;;;5034222;28;20290;-58
2022/02/15 09:22:39;;;;;;;10.93;5.83;;;7.20;99.90;;;;;;5034105;28;20605;-58
2022/02/15 09:25:10;;;;;;;10.07;6.10;;;7.20;99.90;;;;;;5034462;28;20241;-58
2022/02/15 09:27:38;;;;;;;8.33;5.83;;;7.20;99.90;;;;;;5034329;28;20282;-58
2022/02/15 09:30:08;;;;;;;6.33;5.47;;;7.30;99.90;;;;;;5029132;28;20232;-58
2022/02/15 09:32:37;;;;;;;9.13;6.07;;;7.40;99.90;;;;;;5034010;28;20246;-58
2022/02/15 09:35:06;;;;;;;9.00;5.90;;;7.40;99.90;;;;;;5034116;28;20260;-58
2022/02/15 09:37:34;;;;;;;7.23;5.80;;;7.50;99.90;;;;;;5035759;28;20240;-58
2022/02/15 09:40:05;;;;;;;9.30;5.83;;;7.50;99.90;;;;;;5029671;28;20596;-58
2022/02/15 09:42:35;;;;;;;9.63;6.03;;;7.60;99.90;;;;;;5029177;28;20272;-59
2022/02/15 09:45:04;;;;;;;8.07;5.67;;;7.60;99.90;;;;;;5028629;28;20248;-59
2022/02/15 09:47:35;;;;;;;10.77;6.80;;;7.70;99.90;;;;;;5029040;28;20585;-58
2022/02/15 09:50:05;;;;;;;9.50;5.77;;;7.80;99.90;;;;;;5029358;28;20332;-59
2022/02/15 09:52:36;;;;;;;9.67;6.63;;;7.90;99.90;;;;;;5027838;28;20240;-59
2022/02/15 09:55:05;;;;;;;8.67;6.00;;;8.10;99.90;;;;;;5028559;28;20268;-58
2022/02/15 09:57:33;;;;;;;10.13;6.03;;;8.40;99.90;;;;;;5028309;28;20240;-57
2022/02/15 10:00:10;;;;;;;9.87;6.47;;;8.60;99.90;;;;;;5028620;28;20244;-58
2022/02/15 10:02:43;;;;;;;8.00;6.40;;;8.60;99.90;;;;;;5028211;28;20854;-58
2022/02/15 10:05:15;;;;;;;7.97;6.20;;;8.70;99.90;;;;;;5029029;28;20322;-58
2022/02/15 10:07:53;;;;;;;10.43;6.73;;;8.80;99.90;;;;;;5028693;28;20248;-58
2022/02/15 10:10:33;;;;;;;9.77;6.90;;;8.90;99.90;;;;;;5028118;28;20389;-59
2022/02/15 10:13:03;;;;;;;9.33;7.37;;;8.80;99.90;;;;;;5028709;28;20263;-58
2022/02/15 10:15:38;;;;;;;10.57;6.83;;;8.80;99.90;;;;;;5028592;28;20248;-59
2022/02/15 10:18:12;;;;;;;9.37;6.57;;;8.70;99.90;;;;;;5028571;28;20252;-59
2022/02/15 10:20:43;;;;;;;9.70;6.57;;;8.60;99.90;;;;;;5027184;28;20350;-58
2022/02/15 10:23:19;;;;;;;8.83;6.17;;;8.60;99.90;;;;;;5028541;28;20255;-58
2022/02/15 10:25:49;;;;;;;7.97;6.30;;;8.60;99.90;;;;;;5028482;28;20259;-58
2022/02/15 10:28:22;;;;;;;8.37;5.90;;;8.50;99.90;;;;;;5028079;28;20315;-58
2022/02/15 10:30:52;;;;;;;9.33;6.93;;;8.30;99.90;;;;;;5027290;28;20287;-58
2022/02/15 10:33:23;;;;;;;8.60;6.37;;;8.30;99.90;;;;;;5028564;28;20574;-58
2022/02/15 10:35:56;;;;;;;9.13;6.77;;;8.30;99.90;;;;;;5028513;28;20267;-58
2022/02/15 10:38:29;;;;;;;10.60;7.60;;;8.40;99.90;;;;;;5028096;28;20774;-58
2022/02/15 10:40:59;;;;;;;11.43;7.40;;;8.50;99.90;;;;;;5027335;28;20248;-59
2022/02/15 10:43:28;;;;;;;9.03;7.00;;;8.50;99.90;;;;;;5028349;28;20248;-58
2022/02/15 10:45:57;;;;;;;9.07;6.90;;;8.60;99.90;;;;;;5028405;28;20907;-59
2022/02/15 10:48:33;;;;;;;11.20;7.77;;;8.60;99.90;;;;;;5028007;28;20330;-59
2022/02/15 10:51:02;;;;;;;10.77;8.23;;;8.60;99.90;;;;;;5027084;28;20725;-58
2022/02/15 10:53:51;;;;;;;8.27;6.97;;;8.50;99.90;;;;;;5027868;28;20729;-59
2022/02/15 10:56:19;;;;;;;11.70;6.67;;;8.60;99.90;;;;;;5027771;28;20724;-58
2022/02/15 10:58:48;;;;;;;8.77;6.97;;;8.60;99.90;;;;;;5027849;28;20328;-58
2022/02/15 11:01:17;;;;;;;8.20;6.70;;;8.70;99.90;;;;;;5026730;28;20241;-59
2022/02/15 11:03:46;;;;;;;8.43;6.70;;;8.80;99.90;;;;;;5027634;28;20256;-58
2022/02/15 11:06:14;;;;;;;8.77;6.43;;;8.90;99.90;;;;;;5027440;28;20681;-58
2022/02/15 11:08:48;;;;;;;8.57;5.97;;;8.90;99.90;;;;;;5027764;28;20596;-58
2022/02/15 11:11:20;;;;;;;9.33;7.00;;;8.90;99.90;;;;;;5026615;28;20696;-58
2022/02/15 11:13:49;;;;;;;8.03;6.10;;;9.00;99.90;;;;;;5027636;28;20364;-58
2022/02/15 11:16:19;;;;;;;7.70;5.60;;;9.00;99.90;;;;;;5027424;28;20255;-58
2022/02/15 11:18:49;;;;;;;7.50;6.43;;;8.90;99.90;;;;;;5027256;28;20248;-58
2022/02/15 11:21:23;;;;;;;8.80;6.13;;;8.90;99.90;;;;;;5026204;28;20250;-58
2022/02/15 11:23:59;;;;;;;8.83;6.77;;;8.90;99.90;;;;;;5026605;28;20790;-59
2022/02/15 11:26:35;;;;;;;8.67;6.87;;;8.90;99.90;;;;;;5026843;28;20239;-59
2022/02/15 11:29:04;;;;;;;10.30;7.17;;;8.80;99.90;;;;;;5026342;28;20243;-59
2022/02/15 11:31:34;;;;;;;9.13;8.20;;;8.70;99.90;;;;;;5025926;28;20624;-58
2022/02/15 11:34:05;;;;;;;9.40;7.87;;;8.70;99.90;;;;;;5034251;28;20239;-58
2022/02/15 11:36:33;;;;;;;7.80;7.00;;;8.70;99.90;;;;;;5043071;28;20240;-58
2022/02/15 11:39:08;;;;;;;8.53;6.43;;;8.70;99.90;;;;;;5040386;28;20627;-58
2022/02/15 11:41:43;;;;;;;9.60;6.73;;;8.70;99.90;;;;;;5036396;28;20239;-58
2022/02/15 11:44:11;;;;;;;8.80;6.87;;;8.80;99.90;;;;;;5031290;28;20240;-58
2022/02/15 11:46:43;;;;;;;8.80;7.27;;;8.90;99.90;;;;;;5030081;28;20241;-58
2022/02/15 11:49:14;;;;;;;12.73;7.87;;;8.90;99.90;;;;;;5037895;28;20236;-58
2022/02/15 11:51:45;;;;;;;10.30;7.67;;;8.80;99.90;;;;;;5051191;28;20645;-58
2022/02/15 11:54:15;;;;;;;9.80;7.83;;;8.80;99.90;;;;;;5038851;28;20232;-58
2022/02/15 11:56:46;;;;;;;10.97;8.67;;;8.80;99.90;;;;;;5031033;28;20236;-58
2022/02/15 11:59:16;;;;;;;11.13;9.10;;;8.80;99.90;;;;;;5030813;28;20324;-58
2022/02/15 12:01:56;;;;;;;10.83;8.83;;;8.60;99.90;;;;;;5010947;28;20260;-58
2022/02/15 12:04:26;;;;;;;11.53;8.57;;;8.60;99.90;;;;;;5018982;28;20248;-58
2022/02/15 12:06:58;;;;;;;12.70;9.03;;;8.70;99.90;;;;;;5031281;28;20229;-58
2022/02/15 12:09:28;;;;;;;10.63;8.73;;;8.70;99.90;;;;;;5031463;28;20278;-58
2022/02/15 12:11:56;;;;;;;10.13;8.43;;;8.90;99.90;;;;;;5031276;28;20241;-58
2022/02/15 12:14:26;;;;;;;11.57;8.27;;;9.00;99.90;;;;;;5030897;28;20763;-58
2022/02/15 12:16:56;;;;;;;10.40;8.70;;;9.10;99.90;;;;;;5031126;28;20233;-58
2022/02/15 12:19:27;;;;;;;10.97;8.57;;;9.10;99.90;;;;;;5030862;28;20233;-58
2022/02/15 12:21:56;;;;;;;9.87;8.67;;;9.10;99.90;;;;;;5030834;28;20244;-58
2022/02/15 12:24:26;;;;;;;12.20;9.33;;;9.10;99.90;;;;;;5030672;28;20240;-58
2022/02/15 12:26:56;;;;;;;11.97;8.90;;;9.20;99.90;;;;;;5030926;28;20295;-59
2022/02/15 12:29:25;;;;;;;13.40;9.80;;;9.10;99.90;;;;;;5025643;28;20241;-59
2022/02/15 12:31:54;;;;;;;12.03;9.50;;;9.10;99.90;;;;;;5030941;28;20603;-58
2022/02/15 12:34:25;;;;;;;15.07;11.27;;;9.20;99.90;;;;;;5028593;28;20236;-58
2022/02/15 12:36:53;;;;;;;13.43;11.57;;;9.10;99.90;;;;;;5031164;28;20240;-58
2022/02/15 12:39:32;;;;;;;13.27;11.87;;;9.20;99.90;;;;;;5029679;28;20237;-58
2022/02/15 12:42:00;;;;;;;16.87;13.10;;;9.20;99.90;;;;;;5030209;28;20239;-59
2022/02/15 12:44:28;;;;;;;15.03;13.37;;;9.30;99.90;;;;;;5043655;28;20229;-58
2022/02/15 12:46:56;;;;;;;16.53;14.27;;;9.20;99.90;;;;;;5049952;28;20319;-58
2022/02/15 12:49:25;;;;;;;18.33;14.90;;;9.20;99.90;;;;;;5037453;28;20571;-58
2022/02/15 12:51:54;;;;;;;20.40;15.40;;;9.10;99.90;;;;;;5033727;28;20358;-58
2022/02/15 12:54:22;;;;;;;19.50;15.60;;;9.20;99.90;;;;;;5042873;28;20236;-58
2022/02/15 12:56:50;;;;;;;20.33;16.33;;;9.20;99.90;;;;;;5038225;28;20241;-59
2022/02/15 12:59:21;;;;;;;18.37;16.30;;;9.40;99.90;;;;;;5033369;28;20714;-59
2022/02/15 13:01:58;;;;;;;20.27;17.53;;;9.50;99.90;;;;;;5032586;28;20600;-58
2022/02/15 13:04:28;;;;;;;18.90;15.37;;;9.40;99.90;;;;;;5030031;28;20336;-58
2022/02/15 13:06:56;;;;;;;19.20;16.83;;;9.40;99.90;;;;;;5029665;28;20725;-58
2022/02/15 13:09:29;;;;;;;21.57;17.33;;;9.30;99.90;;;;;;5030162;28;20236;-57
2022/02/15 13:11:58;;;;;;;19.63;17.03;;;9.20;99.90;;;;;;5030260;28;20783;-58
2022/02/15 13:14:31;;;;;;;21.00;17.07;;;9.20;99.90;;;;;;5029944;28;20241;-59
2022/02/15 13:17:03;;;;;;;19.83;16.20;;;9.20;99.90;;;;;;5028916;28;21928;-59
2022/02/15 13:19:37;;;;;;;20.07;15.97;;;9.20;99.90;;;;;;5029569;28;20249;-58